TimeMDT,TemperatureF,Dew PointF,Humidity,Sea Level PressureIn,VisibilityMPH,Wind Direction,Wind SpeedMPH,Gust SpeedMPH,PrecipitationIn,Events,Conditions,WindDirDegrees,DateUTC
12:00 AM,31,28,86,29.59,,NNW,23.0,,,,,330,2013-06-19 06:00:00
12:00 AM,30.6,28.4,92,29.59,-9999.0,NNW,23.0,33.4,N/A,,Unknown,330,2013-06-19 06:00:00
1:00 AM,29.7,26.6,88,29.58,-9999.0,NNW,27.6,33.4,N/A,,Unknown,330,2013-06-19 07:00:00
2:00 AM,28.9,25.7,88,29.58,-9999.0,NNW,25.3,33.4,N/A,,Unknown,330,2013-06-19 08:00:00
3:00 AM,28.6,25.0,86,29.58,-9999.0,NNW,20.7,27.6,N/A,,Unknown,330,2013-06-19 09:00:00
4:00 AM,27.9,25.0,89,29.56,-9999.0,NNW,19.6,31.1,N/A,,Unknown,330,2013-06-19 10:00:00
5:00 AM,27.1,23.4,86,29.54,-9999.0,NNW,29.9,36.8,N/A,,Unknown,330,2013-06-19 11:00:00
6:00 AM,27,23,79,29.53,,NNW,28.8,,,,,330,2013-06-19 12:00:00
6:00 AM,26.6,23.0,86,29.53,-9999.0,NNW,28.8,36.8,N/A,,Unknown,330,2013-06-19 12:00:00
7:00 AM,26.6,23.2,87,29.54,-9999.0,NW,17.3,26.5,N/A,,Unknown,320,2013-06-19 13:00:00
8:00 AM,27.3,23.7,86,29.52,-9999.0,NW,24.2,-,N/A,,Unknown,320,2013-06-19 14:00:00
9:00 AM,27.3,22.6,83,29.52,-9999.0,NNW,20.7,27.6,N/A,,Unknown,330,2013-06-19 15:00:00
10:00 AM,27.5,23.7,86,29.51,-9999.0,NW,19.6,-,N/A,,Unknown,320,2013-06-19 16:00:00
11:00 AM,27.0,22.8,84,29.51,-9999.0,NNW,20.7,27.6,N/A,,Unknown,330,2013-06-19 17:00:00
12:00 PM,27,24,82,29.51,,NNW,17.3,,,,,330,2013-06-19 18:00:00
12:00 PM,27.1,23.7,87,29.51,-9999.0,NNW,17.3,24.2,N/A,,Unknown,330,2013-06-19 18:00:00
1:00 PM,27.9,24.4,87,29.51,-9999.0,NW,16.1,-,N/A,,Unknown,320,2013-06-19 19:00:00
2:00 PM,27.9,25.2,90,29.51,-9999.0,NNW,20.7,-,N/A,,Unknown,330,2013-06-19 20:00:00
3:00 PM,28.9,26.1,89,29.52,-9999.0,NNW,18.4,-,N/A,,Unknown,330,2013-06-19 21:00:00
4:00 PM,29.3,25.7,86,29.52,-9999.0,North,12.7,19.6,N/A,,Unknown,350,2013-06-19 22:00:00
5:00 PM,29.1,26.1,88,29.52,-9999.0,NNW,11.5,-,N/A,,Unknown,330,2013-06-19 23:00:00
6:00 PM,29,26,83,29.52,,NNW,13.8,,,,,330,2013-06-20 00:00:00
6:00 PM,29.1,25.9,88,29.52,-9999.0,NNW,13.8,-,N/A,,Unknown,330,2013-06-20 00:00:00
7:00 PM,28.8,25.9,89,29.51,-9999.0,NNW,10.4,-,N/A,,Unknown,330,2013-06-20 01:00:00
8:00 PM,28.4,25.9,90,29.50,-9999.0,NW,11.5,-,N/A,,Unknown,310,2013-06-20 02:00:00
9:00 PM,28.4,26.2,92,29.50,-9999.0,NW,10.4,-,N/A,,Unknown,310,2013-06-20 03:00:00
10:00 PM,27.9,25.2,90,29.49,-9999.0,NNW,13.8,-,N/A,,Unknown,330,2013-06-20 04:00:00
11:00 PM,27.5,25.0,90,29.47,-9999.0,NNW,9.2,-,N/A,,Unknown,340,2013-06-20 05:00:00